Marathon, Canada
Current Conditions -  °F | °C
As of 11:00 AM on Thursday 27 Nov 2014 (Local Time) from CYSP Reporting Station
Few Clouds Few Clouds  
Wind Chill: -27°   Ceiling: Unl
Heat Index: -8°   Visibility: 15mi
Dew Point: -13°   Wind: 12mph
Humidity: 77%   Direction: 40°NE
Pressure: 30.29"   Gusts: 20mph
Location:  48.76°N, 86.35°W
Report Text: CYSP 271600Z 04010G17KT 15SM FEW016 M22/M25 A3029 RMK SC1 TR SC SW OVER LK SLP295
Loading
Personal Weather Stations






























Interactive Weather Map New forecast layout! Learn more

10-Day Weather Forecast

Advertisements
Track Severe Weather on mobile